createdAt,value
2019-01-21T00:00:43.747Z,-0.90
2019-01-21T00:01:48.969Z,-0.90
2019-01-21T00:02:27.255Z,-0.90
2019-01-21T00:03:05.866Z,-0.90
2019-01-21T00:03:44.005Z,-0.90
2019-01-21T00:04:22.145Z,-0.90
2019-01-21T00:04:59.953Z,-0.90
2019-01-21T00:05:37.945Z,-0.90
2019-01-21T00:06:15.717Z,-0.90
2019-01-21T00:06:53.825Z,-0.90
2019-01-21T00:07:31.349Z,-0.90
2019-01-21T00:08:09.325Z,-0.90
2019-01-21T00:08:47.069Z,-0.90
2019-01-21T00:09:24.452Z,-0.80
2019-01-21T00:10:02.457Z,-0.80
2019-01-21T00:10:40.309Z,-0.90
2019-01-21T00:11:17.051Z,-0.90
2019-01-21T00:11:54.551Z,-0.80
2019-01-21T00:12:32.577Z,-0.80
2019-01-21T00:13:10.039Z,-0.80
2019-01-21T00:13:47.517Z,-0.80
2019-01-21T00:14:25.195Z,-0.80
2019-01-21T00:15:02.591Z,-0.80
2019-01-21T00:15:40.851Z,-0.80
2019-01-21T00:16:18.861Z,-0.80
2019-01-21T00:16:56.568Z,-0.80
2019-01-21T00:17:33.618Z,-0.80
2019-01-21T00:18:12.348Z,-0.80
2019-01-21T00:18:50.545Z,-0.80
2019-01-21T00:19:28.233Z,-0.80
2019-01-21T00:20:06.142Z,-0.80
2019-01-21T00:20:43.245Z,-0.80
2019-01-21T00:21:25.336Z,-0.80
2019-01-21T00:22:03.031Z,-0.80
2019-01-21T00:22:40.222Z,-0.80
2019-01-21T00:23:17.599Z,-0.70
2019-01-21T00:23:55.357Z,-0.70
2019-01-21T00:24:33.819Z,-0.70
2019-01-21T00:25:12.255Z,-0.70
2019-01-21T00:25:49.745Z,-0.80
2019-01-21T00:26:26.761Z,-0.70
2019-01-21T00:27:04.700Z,-0.70
2019-01-21T00:27:42.072Z,-0.70
2019-01-21T00:28:20.201Z,-0.70
2019-01-21T00:28:57.953Z,-0.70
2019-01-21T00:29:35.337Z,-0.70
2019-01-21T00:30:13.119Z,-0.70
2019-01-21T00:30:49.954Z,-0.70
2019-01-21T00:31:27.667Z,-0.70
2019-01-21T00:32:05.881Z,-0.70
2019-01-21T00:32:43.739Z,-0.70
2019-01-21T00:33:21.568Z,-0.70
2019-01-21T00:33:59.632Z,-0.70
2019-01-21T00:34:37.315Z,-0.70
2019-01-21T00:35:14.992Z,-0.70
2019-01-21T00:35:52.837Z,-0.70
2019-01-21T00:36:30.675Z,-0.70
2019-01-21T00:37:08.313Z,-0.70
2019-01-21T00:37:46.552Z,-0.70
2019-01-21T00:38:24.232Z,-0.70
2019-01-21T00:39:02.401Z,-0.70
2019-01-21T00:39:40.133Z,-0.70
2019-01-21T00:40:18.333Z,-0.70
2019-01-21T00:40:56.833Z,-0.70
2019-01-21T00:41:34.543Z,-0.70
2019-01-21T00:42:11.971Z,-0.70
2019-01-21T00:42:49.079Z,-0.70
2019-01-21T00:43:27.001Z,-0.70
2019-01-21T00:44:04.595Z,-0.70
2019-01-21T00:44:42.329Z,-0.70
2019-01-21T00:45:19.785Z,-0.70
2019-01-21T00:45:57.765Z,-0.70
2019-01-21T00:46:35.435Z,-0.80
2019-01-21T00:47:13.150Z,-0.80
2019-01-21T00:47:50.949Z,-0.80
2019-01-21T00:48:28.816Z,-0.80
2019-01-21T00:49:06.293Z,-0.80
2019-01-21T00:49:44.297Z,-0.80
2019-01-21T00:50:22.411Z,-0.80
2019-01-21T00:50:59.467Z,-0.80
2019-01-21T00:51:38.001Z,-0.80
2019-01-21T00:52:15.362Z,-0.80
2019-01-21T00:52:53.129Z,-0.80
2019-01-21T00:53:30.655Z,-0.80
2019-01-21T00:54:08.613Z,-0.80
2019-01-21T00:54:45.679Z,-0.80
2019-01-21T00:55:23.477Z,-0.80
2019-01-21T00:56:01.445Z,-0.80
2019-01-21T00:56:39.001Z,-0.90
2019-01-21T00:57:16.327Z,-0.80
2019-01-21T00:57:53.863Z,-0.90
2019-01-21T00:58:31.967Z,-0.80
2019-01-21T00:59:09.226Z,-0.80
2019-01-21T00:59:47.012Z,-0.90
2019-01-21T01:00:26.945Z,-0.90
2019-01-21T01:01:05.588Z,-0.80
2019-01-21T01:01:43.366Z,-0.90
2019-01-21T01:02:20.913Z,-0.90
2019-01-21T01:02:58.291Z,-0.80
2019-01-21T01:03:40.433Z,-0.90
2019-01-21T01:04:19.589Z,-0.80
2019-01-21T01:04:57.388Z,-0.90
2019-01-21T01:05:36.152Z,-0.80
2019-01-21T01:06:14.189Z,-0.80
2019-01-21T01:06:51.661Z,-0.90
2019-01-21T01:07:29.111Z,-0.90
2019-01-21T01:08:07.355Z,-0.90
2019-01-21T01:08:45.381Z,-0.90
2019-01-21T01:09:23.425Z,-0.90
2019-01-21T01:10:01.127Z,-0.90
2019-01-21T01:10:38.211Z,-0.90
2019-01-21T01:11:16.313Z,-0.90
2019-01-21T01:11:53.743Z,-0.90
2019-01-21T01:12:31.287Z,-0.90
2019-01-21T01:13:08.607Z,-0.90
2019-01-21T01:13:46.305Z,-1.00
2019-01-21T01:14:23.762Z,-0.90
2019-01-21T01:15:01.380Z,-0.90
2019-01-21T01:15:38.347Z,-0.90
2019-01-21T01:16:16.135Z,-0.90
2019-01-21T01:16:53.195Z,-0.90
2019-01-21T01:17:37.078Z,-0.90
2019-01-21T01:18:13.133Z,-0.90
2019-01-21T01:18:51.908Z,-0.90
2019-01-21T01:19:29.267Z,-1.00
2019-01-21T01:20:11.644Z,-0.90
2019-01-21T01:20:49.531Z,-0.90
2019-01-21T01:21:29.229Z,-0.90
2019-01-21T01:22:06.617Z,-0.90
2019-01-21T01:22:45.125Z,-0.90
2019-01-21T01:23:22.614Z,-0.90
2019-01-21T01:24:00.091Z,-0.90
2019-01-21T01:24:38.095Z,-0.90
2019-01-21T01:25:16.071Z,-0.90
2019-01-21T01:25:53.789Z,-0.90
2019-01-21T01:26:32.037Z,-0.90
2019-01-21T01:27:09.455Z,-0.90
2019-01-21T01:27:47.375Z,-0.90
2019-01-21T01:28:25.243Z,-0.90
2019-01-21T01:29:02.191Z,-0.90
2019-01-21T01:29:40.193Z,-0.90
2019-01-21T01:30:18.447Z,-0.90
2019-01-21T01:30:56.189Z,-0.90
2019-01-21T01:31:33.995Z,-0.90
2019-01-21T01:32:11.526Z,-0.90
2019-01-21T01:32:49.115Z,-0.90
2019-01-21T01:33:27.133Z,-0.90
2019-01-21T01:34:04.565Z,-0.90
2019-01-21T01:34:43.065Z,-0.90
2019-01-21T01:35:21.144Z,-0.90
2019-01-21T01:35:59.047Z,-0.90
2019-01-21T01:36:37.143Z,-0.90
2019-01-21T01:37:14.532Z,-0.90
2019-01-21T01:37:52.268Z,-0.90
2019-01-21T01:38:29.940Z,-0.90
2019-01-21T01:39:08.319Z,-0.90
2019-01-21T01:39:49.433Z,-0.90
2019-01-21T01:40:27.217Z,-0.90
2019-01-21T01:41:04.853Z,-0.90
2019-01-21T01:41:42.995Z,-0.90
2019-01-21T01:42:20.392Z,-0.90
2019-01-21T01:42:57.699Z,-0.90
2019-01-21T01:43:35.432Z,-0.90
2019-01-21T01:44:13.151Z,-0.90
2019-01-21T01:44:51.310Z,-0.90
2019-01-21T01:45:29.424Z,-0.90
2019-01-21T01:46:07.221Z,-0.90
2019-01-21T01:46:44.402Z,-0.90
2019-01-21T01:47:22.243Z,-0.90
2019-01-21T01:48:01.727Z,-0.90
2019-01-21T01:48:39.154Z,-0.90
2019-01-21T01:49:16.891Z,-0.90
2019-01-21T01:49:54.863Z,-0.90
2019-01-21T01:50:32.851Z,-0.90
2019-01-21T01:51:12.611Z,-0.90
2019-01-21T01:51:50.160Z,-0.90
2019-01-21T01:52:27.747Z,-0.80
2019-01-21T01:53:05.328Z,-0.80
2019-01-21T01:53:42.735Z,-0.80
2019-01-21T01:54:20.287Z,-0.80
2019-01-21T01:54:58.460Z,-0.80
2019-01-21T01:55:36.336Z,-0.80
2019-01-21T01:56:14.870Z,-0.80
2019-01-21T01:56:51.701Z,-0.80
2019-01-21T01:57:29.006Z,-0.80
2019-01-21T01:58:08.575Z,-0.80
2019-01-21T01:58:46.080Z,-0.80
2019-01-21T01:59:23.700Z,-0.80
2019-01-21T02:00:01.376Z,-0.80
2019-01-21T02:00:39.197Z,-0.90
2019-01-21T02:01:16.819Z,-0.90
2019-01-21T02:01:54.595Z,-0.80
2019-01-21T02:02:32.079Z,-0.90
2019-01-21T02:03:09.659Z,-0.90
2019-01-21T02:03:50.475Z,-0.90
2019-01-21T02:04:28.471Z,-0.90
2019-01-21T02:05:06.295Z,-0.90
2019-01-21T02:05:43.674Z,-0.90
2019-01-21T02:06:21.452Z,-0.90
2019-01-21T02:07:00.177Z,-0.90
2019-01-21T02:07:38.067Z,-0.90
2019-01-21T02:08:15.638Z,-0.90
2019-01-21T02:08:52.939Z,-0.90
2019-01-21T02:09:30.383Z,-0.90
2019-01-21T02:10:09.232Z,-0.90
2019-01-21T02:10:47.086Z,-0.90
2019-01-21T02:11:24.951Z,-0.90
2019-01-21T02:12:03.497Z,-0.90
2019-01-21T02:12:41.479Z,-0.90
2019-01-21T02:13:19.620Z,-0.90
2019-01-21T02:13:57.232Z,-0.90
2019-01-21T02:14:35.134Z,-0.90
2019-01-21T02:15:13.179Z,-0.90
2019-01-21T02:15:51.296Z,-0.90
2019-01-21T02:16:29.322Z,-0.90
2019-01-21T02:17:07.175Z,-0.90
2019-01-21T02:17:51.840Z,-0.90
2019-01-21T02:18:23.836Z,-0.90
2019-01-21T02:19:01.215Z,-0.90
2019-01-21T02:19:40.532Z,-0.90
2019-01-21T02:20:18.927Z,-0.90
2019-01-21T02:20:58.880Z,-1.00
2019-01-21T02:21:39.000Z,-1.00
2019-01-21T02:22:19.144Z,-1.00
2019-01-21T02:23:05.192Z,-1.00
2019-01-21T02:23:45.733Z,-1.00
2019-01-21T02:24:24.858Z,-1.00
2019-01-21T02:25:04.954Z,-1.00
2019-01-21T02:25:53.901Z,-1.00
2019-01-21T02:26:31.219Z,-1.00
2019-01-21T02:27:17.643Z,-1.00
2019-01-21T02:28:34.423Z,-1.00
2019-01-21T02:29:28.762Z,-1.00
2019-01-21T02:30:45.004Z,-1.10
2019-01-21T02:32:08.872Z,-1.10
2019-01-21T02:33:11.746Z,-1.10
2019-01-21T02:34:11.756Z,-1.10
2019-01-21T02:35:35.788Z,-1.10
2019-01-21T02:36:55.596Z,-1.10
2019-01-21T02:38:00.741Z,-1.20
2019-01-21T02:39:08.233Z,-1.20
2019-01-21T02:40:11.413Z,-1.20
2019-01-21T02:41:13.538Z,-1.20
2019-01-21T02:42:02.364Z,-1.20
2019-01-21T02:42:51.092Z,-1.20
2019-01-21T02:43:59.392Z,-1.20
2019-01-21T02:45:09.076Z,-1.20
2019-01-21T02:46:19.170Z,-1.20
2019-01-21T02:47:33.424Z,-1.20
2019-01-21T02:48:38.065Z,-1.20
2019-01-21T02:49:42.350Z,-1.20
2019-01-21T02:51:02.222Z,-1.20
2019-01-21T02:52:00.466Z,-1.20
2019-01-21T02:53:18.604Z,-1.20
2019-01-21T02:54:35.008Z,-1.20
2019-01-21T02:55:54.578Z,-1.20
2019-01-21T02:57:13.673Z,-1.20
2019-01-21T02:58:34.157Z,-1.20
2019-01-21T02:59:44.872Z,-1.20
2019-01-21T03:01:03.238Z,-1.20
2019-01-21T03:02:11.303Z,-1.30
2019-01-21T03:03:11.010Z,-1.30
2019-01-21T03:04:20.853Z,-1.30
2019-01-21T03:05:29.244Z,-1.30
2019-01-21T03:06:44.048Z,-1.30
2019-01-21T03:07:28.542Z,-1.30
2019-01-21T03:08:15.468Z,-1.30
2019-01-21T03:09:49.066Z,-1.30
2019-01-21T03:10:50.156Z,-1.30
2019-01-21T03:12:36.262Z,-1.30
2019-01-21T03:13:45.152Z,-1.30
2019-01-21T03:14:53.812Z,-1.30
2019-01-21T03:16:12.762Z,-1.30
2019-01-21T03:17:48.931Z,-1.30
2019-01-21T03:18:58.643Z,-1.40
2019-01-21T03:20:15.451Z,-1.40
2019-01-21T03:21:28.580Z,-1.40
2019-01-21T03:22:23.936Z,-1.40
2019-01-21T03:23:29.500Z,-1.40
2019-01-21T03:24:40.334Z,-1.40
2019-01-21T03:25:52.113Z,-1.40
2019-01-21T03:27:12.996Z,-1.40
2019-01-21T03:28:26.320Z,-1.40
2019-01-21T03:29:56.841Z,-1.40
2019-01-21T03:30:55.870Z,-1.50
2019-01-21T03:31:58.404Z,-1.50
2019-01-21T03:33:31.096Z,-1.50
2019-01-21T03:35:04.984Z,-1.40
2019-01-21T03:36:24.890Z,-1.50
2019-01-21T03:37:37.243Z,-1.40
2019-01-21T03:38:45.957Z,-1.40
2019-01-21T03:40:01.219Z,-1.40
2019-01-21T03:41:05.215Z,-1.40
2019-01-21T03:42:26.941Z,-1.40
2019-01-21T03:43:40.246Z,-1.40
2019-01-21T03:44:35.862Z,-1.40
2019-01-21T03:45:45.789Z,-1.40
2019-01-21T03:46:35.686Z,-1.40
2019-01-21T03:47:46.792Z,-1.40
2019-01-21T03:48:29.525Z,-1.50
2019-01-21T03:49:21.507Z,-1.50
2019-01-21T03:50:41.737Z,-1.50
2019-01-21T03:52:01.917Z,-1.50
2019-01-21T03:52:52.930Z,-1.50
2019-01-21T03:53:54.421Z,-1.50
2019-01-21T03:54:42.799Z,-1.50
2019-01-21T03:55:20.923Z,-1.50
2019-01-21T03:56:02.404Z,-1.50
2019-01-21T03:57:10.366Z,-1.50
2019-01-21T03:58:09.485Z,-1.60
2019-01-21T03:59:04.680Z,-1.60
2019-01-21T04:00:31.792Z,-1.60
2019-01-21T04:01:36.906Z,-1.60
2019-01-21T04:02:34.391Z,-1.60
2019-01-21T04:03:25.662Z,-1.60
2019-01-21T04:04:35.490Z,-1.60
2019-01-21T04:05:37.426Z,-1.60
2019-01-21T04:06:54.184Z,-1.60
2019-01-21T04:08:10.626Z,-1.60
2019-01-21T04:09:20.061Z,-1.60
2019-01-21T04:10:53.761Z,-1.60
2019-01-21T04:11:49.199Z,-1.60
2019-01-21T04:13:07.894Z,-1.60
2019-01-21T04:14:26.570Z,-1.60
2019-01-21T04:15:39.186Z,-1.70
2019-01-21T04:16:37.946Z,-1.70
2019-01-21T04:17:57.385Z,-1.70
2019-01-21T04:19:01.131Z,-1.70
2019-01-21T04:19:53.299Z,-1.70
2019-01-21T04:21:17.579Z,-1.70
2019-01-21T04:22:34.535Z,-1.70
2019-01-21T04:23:34.690Z,-1.70
2019-01-21T04:24:37.206Z,-1.70
2019-01-21T04:25:37.599Z,-1.70
2019-01-21T04:26:35.148Z,-1.70
2019-01-21T04:28:07.533Z,-1.60
2019-01-21T04:28:57.486Z,-1.70
2019-01-21T04:30:16.205Z,-1.70
2019-01-21T04:31:46.420Z,-1.70
2019-01-21T04:32:56.163Z,-1.70
2019-01-21T04:34:03.026Z,-1.70
2019-01-21T04:35:15.037Z,-1.70
2019-01-21T04:36:42.262Z,-1.60
2019-01-21T04:37:44.110Z,-1.60
2019-01-21T04:38:58.659Z,-1.60
2019-01-21T04:40:01.883Z,-1.60
2019-01-21T04:40:52.962Z,-1.60
2019-01-21T04:42:03.996Z,-1.60
2019-01-21T04:43:26.562Z,-1.60
2019-01-21T04:44:41.088Z,-1.60
2019-01-21T04:45:50.059Z,-1.60
2019-01-21T04:47:16.941Z,-1.60
2019-01-21T04:48:19.991Z,-1.60
2019-01-21T04:49:42.756Z,-1.70
2019-01-21T04:50:57.863Z,-1.70
2019-01-21T04:52:25.671Z,-1.70
2019-01-21T04:53:37.891Z,-1.70
2019-01-21T04:54:44.713Z,-1.70
2019-01-21T04:56:08.627Z,-1.70
2019-01-21T04:57:22.634Z,-1.70
2019-01-21T04:58:26.740Z,-1.70
2019-01-21T04:59:28.125Z,-1.70
2019-01-21T05:00:27.313Z,-1.80
2019-01-21T05:01:38.769Z,-1.70
2019-01-21T05:02:44.647Z,-1.70
2019-01-21T05:03:47.741Z,-1.70
2019-01-21T05:05:03.557Z,-1.70
2019-01-21T05:06:03.204Z,-1.70
2019-01-21T05:07:20.965Z,-1.70
2019-01-21T05:08:45.134Z,-1.70
2019-01-21T05:10:08.916Z,-1.70
2019-01-21T05:11:28.513Z,-1.70
2019-01-21T05:12:29.346Z,-1.80
2019-01-21T05:13:42.940Z,-1.80
2019-01-21T05:14:46.221Z,-1.80
2019-01-21T05:16:03.930Z,-1.80
2019-01-21T05:16:58.945Z,-1.80
2019-01-21T05:18:15.205Z,-1.80
2019-01-21T05:19:34.062Z,-1.80
2019-01-21T05:20:52.793Z,-1.80
2019-01-21T05:22:07.144Z,-1.80
2019-01-21T05:23:25.053Z,-1.80
2019-01-21T05:24:40.677Z,-1.90
2019-01-21T05:25:49.566Z,-1.80
2019-01-21T05:26:55.305Z,-1.90
2019-01-21T05:28:07.342Z,-1.90
2019-01-21T05:29:25.042Z,-1.90
2019-01-21T05:30:49.929Z,-1.90
2019-01-21T05:32:24.005Z,-1.90
2019-01-21T05:33:45.070Z,-1.90
2019-01-21T05:34:58.732Z,-1.90
2019-01-21T05:36:18.725Z,-1.90
2019-01-21T05:37:46.772Z,-1.90
2019-01-21T05:38:56.009Z,-1.90
2019-01-21T05:39:59.640Z,-1.90
2019-01-21T05:41:36.004Z,-1.90
2019-01-21T05:42:53.587Z,-1.90
2019-01-21T05:43:50.829Z,-1.90
2019-01-21T05:44:51.885Z,-1.90
2019-01-21T05:46:10.212Z,-1.90
2019-01-21T05:47:11.845Z,-1.90
2019-01-21T05:48:29.039Z,-2.00
2019-01-21T05:49:40.394Z,-2.00
2019-01-21T05:50:53.266Z,-2.00
2019-01-21T05:51:57.935Z,-2.00
2019-01-21T05:53:11.481Z,-2.00
2019-01-21T05:54:23.381Z,-2.00
2019-01-21T05:55:31.575Z,-2.00
2019-01-21T05:56:52.845Z,-2.00
2019-01-21T05:58:10.567Z,-2.00
2019-01-21T05:59:21.341Z,-2.00
2019-01-21T06:00:31.365Z,-2.00
2019-01-21T06:01:39.503Z,-2.00
2019-01-21T06:03:09.062Z,-2.00
2019-01-21T06:04:08.803Z,-2.10
2019-01-21T06:05:14.307Z,-2.10
2019-01-21T06:06:16.907Z,-2.10
2019-01-21T06:07:33.620Z,-2.10
2019-01-21T06:08:48.099Z,-2.10
2019-01-21T06:09:59.033Z,-2.10
2019-01-21T06:11:02.728Z,-2.10
2019-01-21T06:11:50.382Z,-2.10
2019-01-21T06:13:09.571Z,-2.10
2019-01-21T06:14:06.631Z,-2.10
2019-01-21T06:15:37.525Z,-2.10
2019-01-21T06:17:05.074Z,-2.10
2019-01-21T06:18:07.747Z,-2.10
2019-01-21T06:19:15.121Z,-2.10
2019-01-21T06:20:55.073Z,-2.20
2019-01-21T06:22:12.282Z,-2.20
2019-01-21T06:23:33.159Z,-2.20
2019-01-21T06:24:47.337Z,-2.20
2019-01-21T06:26:00.145Z,-2.20
2019-01-21T06:27:13.973Z,-2.20
2019-01-21T06:28:35.547Z,-2.10
2019-01-21T06:29:33.947Z,-2.10
2019-01-21T06:30:32.181Z,-2.10
2019-01-21T06:31:46.729Z,-2.10
2019-01-21T06:32:57.129Z,-2.10
2019-01-21T06:34:25.317Z,-2.10
2019-01-21T06:35:39.733Z,-2.10
2019-01-21T06:36:42.987Z,-2.10
2019-01-21T06:37:36.757Z,-2.10
2019-01-21T06:38:54.924Z,-2.10
2019-01-21T06:39:46.383Z,-2.10
2019-01-21T06:41:01.913Z,-2.20
2019-01-21T06:42:10.011Z,-2.20
2019-01-21T06:43:13.465Z,-2.20
2019-01-21T06:44:27.678Z,-2.20
2019-01-21T06:45:23.539Z,-2.20
2019-01-21T06:46:19.419Z,-2.20
2019-01-21T06:47:24.480Z,-2.20
2019-01-21T06:48:28.961Z,-2.20
2019-01-21T06:50:02.119Z,-2.20
2019-01-21T06:51:09.691Z,-2.10
2019-01-21T06:52:28.367Z,-2.10
2019-01-21T06:54:07.887Z,-2.10
2019-01-21T06:55:34.136Z,-2.10
2019-01-21T06:56:54.124Z,-2.20
2019-01-21T06:58:14.588Z,-2.10
2019-01-21T06:59:27.887Z,-2.10
2019-01-21T07:00:42.542Z,-2.20
2019-01-21T07:01:49.484Z,-2.10
2019-01-21T07:03:06.650Z,-2.20
2019-01-21T07:04:14.557Z,-2.10
2019-01-21T07:05:28.671Z,-2.20
2019-01-21T07:06:49.263Z,-2.10
2019-01-21T07:08:16.894Z,-2.10
2019-01-21T07:09:40.042Z,-2.10
2019-01-21T07:10:54.888Z,-2.20
2019-01-21T07:11:46.199Z,-2.20
2019-01-21T07:13:10.741Z,-2.20
2019-01-21T07:14:03.389Z,-2.20
2019-01-21T07:15:12.664Z,-2.20
2019-01-21T07:16:29.437Z,-2.20
2019-01-21T07:17:34.260Z,-2.20
2019-01-21T07:18:55.263Z,-2.30
2019-01-21T07:19:57.589Z,-2.30
2019-01-21T07:20:56.219Z,-2.30
2019-01-21T07:22:08.001Z,-2.30
2019-01-21T07:23:18.115Z,-2.30
2019-01-21T07:24:23.547Z,-2.30
2019-01-21T07:25:40.859Z,-2.30
2019-01-21T07:26:44.151Z,-2.30
2019-01-21T07:28:09.599Z,-2.30
2019-01-21T07:29:12.731Z,-2.30
2019-01-21T07:30:34.879Z,-2.20
2019-01-21T07:31:43.263Z,-2.20
2019-01-21T07:32:59.967Z,-2.20
2019-01-21T07:34:08.975Z,-2.20
2019-01-21T07:35:39.859Z,-2.20
2019-01-21T07:36:53.067Z,-2.20
2019-01-21T07:38:19.757Z,-2.20
2019-01-21T07:39:20.410Z,-2.20
2019-01-21T07:40:40.405Z,-2.20
2019-01-21T07:41:57.458Z,-2.20
2019-01-21T07:43:13.646Z,-2.10
2019-01-21T07:44:05.054Z,-2.10
2019-01-21T07:44:54.587Z,-2.10
2019-01-21T07:45:51.960Z,-2.10
2019-01-21T07:47:01.412Z,-2.10
2019-01-21T07:48:18.900Z,-2.10
2019-01-21T07:49:26.635Z,-2.10
2019-01-21T07:50:29.967Z,-2.10
2019-01-21T07:51:59.179Z,-2.00
2019-01-21T07:53:06.037Z,-2.00
2019-01-21T07:54:15.716Z,-2.00
2019-01-21T07:55:12.984Z,-2.00
2019-01-21T07:56:39.537Z,-2.00
2019-01-21T07:57:56.995Z,-2.00
2019-01-21T07:59:11.087Z,-2.00
2019-01-21T08:00:23.412Z,-2.00
2019-01-21T08:01:25.640Z,-2.00
2019-01-21T08:02:58.532Z,-2.00
2019-01-21T08:04:16.859Z,-2.00
2019-01-21T08:05:49.844Z,-1.90
2019-01-21T08:06:43.602Z,-1.90
2019-01-21T08:08:08.901Z,-1.90
2019-01-21T08:09:27.389Z,-1.90
2019-01-21T08:10:35.484Z,-1.90
2019-01-21T08:11:52.800Z,-1.90
2019-01-21T08:12:44.781Z,-1.90
2019-01-21T08:13:53.583Z,-1.90
2019-01-21T08:14:55.593Z,-1.90
2019-01-21T08:16:09.370Z,-1.90
2019-01-21T08:17:30.814Z,-1.90
2019-01-21T08:18:57.383Z,-1.90
2019-01-21T08:19:59.496Z,-1.90
2019-01-21T08:21:08.916Z,-1.90
2019-01-21T08:22:25.823Z,-1.90
2019-01-21T08:23:44.054Z,-1.90
2019-01-21T08:24:40.682Z,-1.90
2019-01-21T08:25:45.224Z,-1.90
2019-01-21T08:26:59.660Z,-1.80
2019-01-21T08:28:01.072Z,-1.80
2019-01-21T08:29:27.893Z,-1.80
2019-01-21T08:30:44.680Z,-1.80
2019-01-21T08:31:31.895Z,-1.70
2019-01-21T08:32:59.648Z,-1.70
2019-01-21T08:34:03.393Z,-1.70
2019-01-21T08:35:14.035Z,-1.70
2019-01-21T08:36:17.902Z,-1.70
2019-01-21T08:37:50.282Z,-1.70
2019-01-21T08:39:32.915Z,-1.70
2019-01-21T08:41:00.828Z,-1.60
2019-01-21T08:41:54.484Z,-1.60
2019-01-21T08:43:13.136Z,-1.60
2019-01-21T08:44:29.720Z,-1.60
2019-01-21T08:45:38.432Z,-1.60
2019-01-21T08:46:53.515Z,-1.70
2019-01-21T08:47:45.109Z,-1.60
2019-01-21T08:48:58.432Z,-1.70
2019-01-21T08:50:02.732Z,-1.60
2019-01-21T08:51:21.899Z,-1.60
2019-01-21T08:52:40.640Z,-1.60
2019-01-21T08:53:38.924Z,-1.50
2019-01-21T08:54:42.243Z,-1.50
2019-01-21T08:55:56.609Z,-1.50
2019-01-21T08:56:53.004Z,-1.50
2019-01-21T08:58:04.835Z,-1.50
2019-01-21T08:59:09.208Z,-1.50
2019-01-21T09:00:09.793Z,-1.50
2019-01-21T09:01:30.356Z,-1.40
2019-01-21T09:03:00.722Z,-1.40
2019-01-21T09:04:02.550Z,-1.40
2019-01-21T09:05:14.308Z,-1.40
2019-01-21T09:06:20.200Z,-1.50
2019-01-21T09:07:33.210Z,-1.50
2019-01-21T09:08:55.806Z,-1.40
2019-01-21T09:09:45.380Z,-1.40
2019-01-21T09:10:42.194Z,-1.40
2019-01-21T09:11:44.144Z,-1.40
2019-01-21T09:13:00.614Z,-1.40
2019-01-21T09:14:13.750Z,-1.40
2019-01-21T09:15:25.640Z,-1.30
2019-01-21T09:16:35.579Z,-1.30
2019-01-21T09:18:00.158Z,-1.20
2019-01-21T09:19:14.203Z,-1.20
2019-01-21T09:20:41.344Z,-1.10
2019-01-21T09:21:33.371Z,-1.10
2019-01-21T09:22:39.664Z,-1.10
2019-01-21T09:23:59.874Z,-1.10
2019-01-21T09:25:19.520Z,-1.10
2019-01-21T09:26:46.864Z,-1.00
2019-01-21T09:27:52.379Z,-1.00
2019-01-21T09:29:01.160Z,-1.00
2019-01-21T09:30:01.014Z,-0.90
2019-01-21T09:30:54.164Z,-0.90
2019-01-21T09:32:03.440Z,-0.80
2019-01-21T09:33:04.162Z,-0.80
2019-01-21T09:34:18.688Z,-0.80
2019-01-21T09:35:32.066Z,-0.80
2019-01-21T09:36:33.626Z,-0.80
2019-01-21T09:37:51.976Z,-0.70
2019-01-21T09:39:31.640Z,-0.60
2019-01-21T09:40:51.817Z,-0.60
2019-01-21T09:42:08.928Z,-0.50
2019-01-21T09:43:22.058Z,-0.50
2019-01-21T09:44:23.680Z,-0.50
2019-01-21T09:45:10.009Z,-0.50
2019-01-21T09:46:17.771Z,-0.50
2019-01-21T09:46:53.548Z,-0.50
2019-01-21T09:47:29.175Z,-0.50
2019-01-21T09:48:05.176Z,-0.50
2019-01-21T09:48:41.220Z,-0.50
2019-01-21T09:49:16.552Z,-0.50
2019-01-21T09:49:54.596Z,-0.50
2019-01-21T09:50:33.685Z,-0.50
2019-01-21T09:51:12.604Z,-0.50
2019-01-21T09:52:15.544Z,-0.50
2019-01-21T09:52:53.596Z,-0.50
2019-01-21T09:53:32.168Z,-0.50
2019-01-21T09:54:10.444Z,-0.50
2019-01-21T09:54:48.793Z,-0.50
2019-01-21T09:55:26.978Z,-0.50
2019-01-21T09:56:05.622Z,-0.50
2019-01-21T09:56:43.782Z,-0.40
2019-01-21T09:57:26.054Z,-0.40
2019-01-21T09:58:07.394Z,-0.40
2019-01-21T09:58:46.261Z,-0.40
2019-01-21T09:59:24.683Z,-0.40
2019-01-21T10:00:03.651Z,-0.40
2019-01-21T10:00:41.570Z,-0.40
2019-01-21T10:01:21.280Z,-0.40
2019-01-21T10:02:01.440Z,-0.40
2019-01-21T10:02:45.665Z,-0.40
2019-01-21T10:03:23.976Z,-0.40
2019-01-21T10:04:02.264Z,-0.40
2019-01-21T10:04:54.028Z,-0.40
2019-01-21T10:05:32.920Z,-0.40
2019-01-21T10:06:10.194Z,-0.40
2019-01-21T10:07:17.123Z,-0.40
2019-01-21T10:08:35.531Z,-0.40
2019-01-21T10:09:38.798Z,-0.30
2019-01-21T10:10:33.016Z,-0.30
2019-01-21T10:11:35.404Z,-0.30
2019-01-21T10:13:02.230Z,-0.30
2019-01-21T10:14:22.045Z,-0.30
2019-01-21T10:15:30.225Z,-0.20
2019-01-21T10:16:39.795Z,-0.20
2019-01-21T10:17:53.043Z,-0.10
2019-01-21T10:18:44.555Z,-0.10
2019-01-21T10:19:50.486Z,-0.10
2019-01-21T10:20:39.248Z,-0.10
2019-01-21T10:21:32.239Z,-0.10
2019-01-21T10:22:31.984Z,-0.10
2019-01-21T10:23:44.800Z,-0.10
2019-01-21T10:24:56.220Z,-0.10
2019-01-21T10:26:10.153Z,-0.10
2019-01-21T10:27:06.988Z,-0.10
2019-01-21T10:28:39.659Z,-0.20
2019-01-21T10:30:02.085Z,-0.20
2019-01-21T10:31:18.794Z,-0.20
2019-01-21T10:32:46.151Z,-0.10
2019-01-21T10:33:54.710Z,-0.10
2019-01-21T10:35:18.768Z,-0.10
2019-01-21T10:36:52.840Z,-0.10
2019-01-21T10:38:06.143Z,-0.10
2019-01-21T10:39:21.830Z,-0.10
2019-01-21T10:40:23.371Z,-0.10
2019-01-21T10:41:39.859Z,0.00
2019-01-21T10:43:06.802Z,0.00
2019-01-21T10:44:29.149Z,0.00
2019-01-21T10:45:37.029Z,-0.10
2019-01-21T10:46:49.956Z,-0.10
2019-01-21T10:48:00.548Z,0.00
2019-01-21T10:48:58.146Z,-0.10
2019-01-21T10:50:25.782Z,0.00
2019-01-21T10:51:40.013Z,0.00
2019-01-21T10:52:53.302Z,0.00
2019-01-21T10:53:44.757Z,0.00
2019-01-21T10:54:49.633Z,0.00
2019-01-21T10:56:06.785Z,0.00
2019-01-21T10:56:54.749Z,0.00
2019-01-21T10:57:55.699Z,0.10
2019-01-21T10:58:45.870Z,0.10
2019-01-21T11:00:12.562Z,0.10
2019-01-21T11:01:25.939Z,0.10
2019-01-21T11:02:46.885Z,0.20
2019-01-21T11:04:02.081Z,0.20
2019-01-21T11:05:25.035Z,0.20
2019-01-21T11:06:30.790Z,0.20
2019-01-21T11:07:33.437Z,0.20
2019-01-21T11:08:40.255Z,0.20
2019-01-21T11:09:57.771Z,0.20
2019-01-21T11:11:09.991Z,0.10
2019-01-21T11:12:36.593Z,0.20
2019-01-21T11:13:34.243Z,0.20
2019-01-21T11:14:58.397Z,0.20
2019-01-21T11:15:44.696Z,0.10
2019-01-21T11:16:48.499Z,0.20
2019-01-21T11:17:44.552Z,0.20
2019-01-21T11:19:05.301Z,0.20
2019-01-21T11:20:42.097Z,0.20
2019-01-21T11:21:31.147Z,0.20
2019-01-21T11:22:32.460Z,0.20
2019-01-21T11:23:44.134Z,0.20
2019-01-21T11:24:55.129Z,0.20
2019-01-21T11:26:14.984Z,0.20
2019-01-21T11:27:38.749Z,0.20
2019-01-21T11:28:27.695Z,0.20
2019-01-21T11:29:31.386Z,0.20
2019-01-21T11:30:55.958Z,0.20
2019-01-21T11:31:52.183Z,0.20
2019-01-21T11:32:59.892Z,0.20
2019-01-21T11:34:02.490Z,0.20
2019-01-21T11:35:19.041Z,0.20
2019-01-21T11:36:52.421Z,0.20
2019-01-21T11:38:05.956Z,0.30
2019-01-21T11:39:05.747Z,0.40
2019-01-21T11:40:08.144Z,0.40
2019-01-21T11:40:57.116Z,0.40
2019-01-21T11:42:10.419Z,0.40
2019-01-21T11:43:26.255Z,0.50
2019-01-21T11:44:33.255Z,0.50
2019-01-21T11:46:03.135Z,0.50
2019-01-21T11:47:38.586Z,0.50
2019-01-21T11:48:41.037Z,0.60
2019-01-21T11:50:10.486Z,0.60
2019-01-21T11:51:19.603Z,0.70
2019-01-21T11:52:23.464Z,0.70
2019-01-21T11:53:48.347Z,0.70
2019-01-21T11:55:21.919Z,0.70
2019-01-21T11:56:40.200Z,0.70
2019-01-21T11:57:46.340Z,0.70
2019-01-21T11:58:39.384Z,0.70
2019-01-21T11:59:47.559Z,0.80
2019-01-21T12:00:37.949Z,0.80
2019-01-21T12:01:41.147Z,0.70
2019-01-21T12:03:07.080Z,0.70
2019-01-21T12:04:01.606Z,0.70
2019-01-21T12:05:25.846Z,0.60
2019-01-21T12:06:13.959Z,0.60
2019-01-21T12:07:14.563Z,0.50
2019-01-21T12:08:27.961Z,0.50
2019-01-21T12:09:28.080Z,0.50
2019-01-21T12:10:26.260Z,0.40
2019-01-21T12:11:40.790Z,0.40
2019-01-21T12:12:31.144Z,0.30
2019-01-21T12:13:33.151Z,0.30
2019-01-21T12:14:46.747Z,0.30
2019-01-21T12:16:02.783Z,0.30
2019-01-21T12:17:08.876Z,0.30
2019-01-21T12:18:17.995Z,0.40
2019-01-21T12:19:28.789Z,0.40
2019-01-21T12:20:59.394Z,0.40
2019-01-21T12:22:29.387Z,0.40
2019-01-21T12:23:39.244Z,0.50
2019-01-21T12:24:34.861Z,0.50
2019-01-21T12:25:27.693Z,0.50
2019-01-21T12:26:21.443Z,0.60
2019-01-21T12:27:40.019Z,0.60
2019-01-21T12:28:44.593Z,0.60
2019-01-21T12:30:09.055Z,0.60
2019-01-21T12:31:32.423Z,0.60
2019-01-21T12:32:40.055Z,0.60
2019-01-21T12:34:08.407Z,0.60
2019-01-21T12:35:17.829Z,0.70
2019-01-21T12:36:08.287Z,0.60
2019-01-21T12:37:16.909Z,0.60
2019-01-21T12:38:31.883Z,0.50
2019-01-21T12:39:17.881Z,0.50
2019-01-21T12:40:29.711Z,0.40
2019-01-21T12:41:26.343Z,0.40
2019-01-21T12:42:23.755Z,0.30
2019-01-21T12:43:45.351Z,0.30
2019-01-21T12:45:00.123Z,0.30
2019-01-21T12:46:24.537Z,0.20
2019-01-21T12:47:26.311Z,0.20
2019-01-21T12:48:33.763Z,0.10
2019-01-21T12:50:01.517Z,0.10
2019-01-21T12:51:40.793Z,0.00
2019-01-21T12:52:35.379Z,-0.10
2019-01-21T12:53:38.790Z,-0.20
2019-01-21T12:54:41.393Z,-0.30
2019-01-21T12:55:38.948Z,-0.40
2019-01-21T12:56:44.077Z,-0.50